バンダルスリブガワン の空港の天気 - METARとTAF

ブルネイ国際空港 ( WBSB / BWN ) - ブルネイ バンダルスリブガワン
飛行場実況気象(Metar)
観測時間10/01 23:30 BNT (10/01 15:30 UTC)
風向・風速南南東 2m/s
視程9000m
天気現象弱い雨
全天の4割程度の雲 雲底高度 430m
全天の8割程度の雲 雲底高度 4570m
気温26℃
湿度94%
気圧1009hPa
METARWBSB 011530Z 16003KT 9000 -RA SCT014 BKN150 26/25 Q1009 TEMPO 7000 SHRA TSRA
過去の天気等 Google飛行場航空写真 Wunderground天気予報

過去48時間のMETAR

飛行場予報(TAF)
発表時間: 10/01 19:00 BNT (10/01 11:00 UTC)
予報対象時間: 1日20時 BNT ~ 3日2時 BNT
風向・風速南南西 2m/s
視程10km以上
少しの雲 雲底高度 120m
全天の4割程度の雲 雲底高度 460m
少しの積乱雲 雲底高度 490m
1日20時 BNT ~ 1日23時 BNT に一時的に
視程7000m
天気現象しゅう雨 雷雨
2日10時 BNT ~ 2日12時 BNT に徐々に
風向・風速西 5m/s
全天の4割程度の雲 雲底高度 490m
少しの積乱雲 雲底高度 520m
TAF WBSB 011100Z 0112/0218 20003KT 9999 FEW004 SCT015 FEW016CB
TEMPO 0112/0115 7000 SHRA TSRA
BECMG 0202/0204 26010KT SCT016 FEW017CB